createdAt,value
2019-03-23T00:01:50.181Z,4.17
2019-03-23T00:04:19.681Z,5.77
2019-03-23T00:06:48.985Z,6.30
2019-03-23T00:09:17.631Z,6.13
2019-03-23T00:11:46.922Z,6.53
2019-03-23T00:14:16.197Z,6.40
2019-03-23T00:16:45.489Z,4.07
2019-03-23T00:19:14.137Z,4.77
2019-03-23T00:21:42.713Z,5.03
2019-03-23T00:24:11.284Z,7.10
2019-03-23T00:26:40.855Z,10.43
2019-03-23T00:29:10.165Z,6.77
2019-03-23T00:31:39.462Z,7.53
2019-03-23T00:34:08.853Z,2.33
2019-03-23T00:36:41.698Z,5.93
2019-03-23T00:39:09.370Z,10.27
2019-03-23T00:41:37.929Z,6.17
2019-03-23T00:44:07.549Z,11.50
2019-03-23T00:46:36.263Z,7.43
2019-03-23T00:49:05.901Z,6.43
2019-03-23T00:51:35.270Z,6.60
2019-03-23T00:54:04.992Z,6.73
2019-03-23T00:56:34.262Z,7.30
2019-03-23T00:59:03.621Z,5.23
2019-03-23T01:01:32.901Z,6.53
2019-03-23T01:04:02.434Z,6.83
2019-03-23T01:06:31.733Z,16.47
2019-03-23T01:09:00.300Z,4.47
2019-03-23T01:11:29.653Z,7.93
2019-03-23T01:13:58.221Z,4.03
2019-03-23T01:16:27.498Z,8.47
2019-03-23T01:18:56.226Z,5.73
2019-03-23T01:21:25.589Z,5.47
2019-03-23T01:23:54.952Z,11.93
2019-03-23T01:26:24.234Z,6.53
2019-03-23T01:28:53.537Z,6.60
2019-03-23T01:31:22.101Z,10.40
2019-03-23T01:33:51.410Z,7.50
2019-03-23T01:36:20.676Z,7.37
2019-03-23T01:38:49.955Z,7.03
2019-03-23T01:41:18.538Z,15.03
2019-03-23T01:43:47.845Z,10.03
2019-03-23T01:46:17.405Z,9.40
2019-03-23T01:48:45.976Z,9.80
2019-03-23T01:51:15.447Z,10.40
2019-03-23T01:53:44.983Z,8.67
2019-03-23T01:56:14.402Z,13.90
2019-03-23T01:58:43.688Z,11.90
2019-03-23T02:01:12.960Z,9.40
2019-03-23T02:03:42.255Z,12.77
2019-03-23T02:06:11.529Z,11.20
2019-03-23T02:08:41.065Z,8.50
2019-03-23T02:11:09.641Z,12.30
2019-03-23T02:13:38.986Z,13.33
2019-03-23T02:16:08.269Z,12.03
2019-03-23T02:18:37.542Z,11.37
2019-03-23T02:21:07.138Z,15.97
2019-03-23T02:23:36.413Z,17.17
2019-03-23T02:26:04.993Z,14.57
2019-03-23T02:28:34.286Z,15.50
2019-03-23T02:31:03.592Z,18.57
2019-03-23T02:33:32.984Z,16.17
2019-03-23T02:36:01.558Z,13.50
2019-03-23T02:38:30.117Z,10.20
2019-03-23T02:40:59.409Z,15.77
2019-03-23T02:43:28.004Z,20.80
2019-03-23T02:45:57.327Z,19.13
2019-03-23T02:48:25.886Z,22.20
2019-03-23T02:50:55.181Z,22.33
2019-03-23T02:53:24.470Z,17.77
2019-03-23T02:55:53.830Z,19.30
2019-03-23T02:58:23.111Z,14.43
2019-03-23T03:00:52.417Z,15.30
2019-03-23T03:03:21.281Z,25.08
2019-03-23T03:05:49.924Z,18.73
2019-03-23T03:08:19.313Z,27.20
2019-03-23T03:10:47.902Z,17.07
2019-03-23T03:13:17.190Z,14.33
2019-03-23T03:15:45.809Z,18.15
2019-03-23T03:18:15.181Z,19.07
2019-03-23T03:20:44.563Z,19.52
2019-03-23T03:23:13.857Z,22.07
2019-03-23T03:25:43.228Z,26.02
2019-03-23T03:28:12.513Z,21.00
2019-03-23T03:30:42.088Z,20.53
2019-03-23T03:33:11.416Z,21.63
2019-03-23T03:35:39.980Z,26.48
2019-03-23T03:38:08.618Z,35.52
2019-03-23T03:40:37.922Z,23.20
2019-03-23T03:43:06.497Z,23.18
2019-03-23T03:45:35.788Z,28.17
2019-03-23T03:48:04.443Z,21.85
2019-03-23T03:50:33.086Z,29.55
2019-03-23T03:53:02.419Z,30.77
2019-03-23T03:55:31.746Z,26.45
2019-03-23T03:58:01.091Z,22.48
2019-03-23T04:00:30.481Z,30.27
2019-03-23T04:02:59.848Z,64.92
2019-03-23T04:05:29.133Z,26.73
2019-03-23T04:08:10.333Z,27.32
2019-03-23T04:10:28.035Z,23.35
2019-03-23T04:12:57.379Z,24.30
2019-03-23T04:15:26.705Z,30.35
2019-03-23T04:17:55.337Z,26.60
2019-03-23T04:20:24.626Z,28.40
2019-03-23T04:22:53.930Z,30.85
2019-03-23T04:25:23.468Z,32.28
2019-03-23T04:27:52.768Z,36.93
2019-03-23T04:30:21.352Z,32.00
2019-03-23T04:32:50.658Z,34.08
2019-03-23T04:35:20.011Z,32.85
2019-03-23T04:37:49.340Z,37.13
2019-03-23T04:40:18.000Z,34.67
2019-03-23T04:42:47.340Z,28.85
2019-03-23T04:45:15.989Z,73.00
2019-03-23T04:47:44.589Z,89.22
2019-03-23T04:50:13.947Z,147.85
2019-03-23T04:52:42.821Z,135.40
2019-03-23T04:55:11.654Z,153.73
2019-03-23T04:57:41.793Z,160.63
2019-03-23T05:00:11.097Z,166.95
2019-03-23T05:02:40.478Z,166.43
2019-03-23T05:05:10.167Z,125.13
2019-03-23T05:07:39.444Z,166.93
2019-03-23T05:10:08.470Z,151.00
2019-03-23T05:12:37.049Z,133.77
2019-03-23T05:15:07.646Z,132.87
2019-03-23T05:17:36.322Z,140.07
2019-03-23T05:20:06.725Z,136.53
2019-03-23T05:22:36.081Z,123.17
2019-03-23T05:25:06.277Z,128.87
2019-03-23T05:27:34.835Z,144.47
2019-03-23T05:30:04.623Z,126.83
2019-03-23T05:32:33.922Z,128.43
2019-03-23T05:35:03.296Z,134.90
2019-03-23T05:37:31.865Z,123.57
2019-03-23T05:40:00.446Z,140.63
2019-03-23T05:42:29.748Z,121.63
2019-03-23T05:44:58.351Z,122.23
2019-03-23T05:47:26.929Z,139.33
2019-03-23T05:49:55.516Z,129.23
2019-03-23T05:52:24.812Z,123.97
2019-03-23T05:54:54.152Z,124.77
2019-03-23T05:57:23.778Z,122.93
2019-03-23T05:59:53.081Z,124.73
2019-03-23T06:02:24.794Z,126.07
2019-03-23T06:04:53.381Z,146.73
2019-03-23T06:07:22.666Z,135.23
2019-03-23T06:09:51.264Z,132.80
2019-03-23T06:12:19.844Z,139.40
2019-03-23T06:14:49.154Z,121.30
2019-03-23T06:17:17.866Z,156.73
2019-03-23T06:19:47.204Z,151.93
2019-03-23T06:22:16.512Z,128.37
2019-03-23T06:24:45.817Z,136.50
2019-03-23T06:27:15.109Z,154.93
2019-03-23T06:29:45.731Z,132.03
2019-03-23T06:32:14.989Z,138.43
2019-03-23T06:34:43.578Z,119.17
2019-03-23T06:37:12.897Z,139.13
2019-03-23T06:39:41.562Z,158.30
2019-03-23T06:42:10.867Z,140.87
2019-03-23T06:44:39.453Z,125.47
2019-03-23T06:47:08.041Z,140.53
2019-03-23T06:49:37.342Z,145.23
2019-03-23T06:52:05.929Z,141.43
2019-03-23T06:54:35.230Z,146.30
2019-03-23T06:57:04.629Z,153.23
2019-03-23T06:59:33.209Z,145.70
2019-03-23T07:02:02.546Z,148.37
2019-03-23T07:04:31.845Z,138.37
2019-03-23T07:07:01.153Z,125.43
2019-03-23T07:09:29.728Z,121.53
2019-03-23T07:11:59.052Z,128.73
2019-03-23T07:14:27.644Z,107.73
2019-03-23T07:16:56.945Z,118.50
2019-03-23T07:19:26.270Z,116.27
2019-03-23T07:21:55.589Z,93.57
2019-03-23T07:24:24.173Z,136.63
2019-03-23T07:26:53.491Z,116.57
2019-03-23T07:29:22.073Z,104.93
2019-03-23T07:31:50.669Z,124.67
2019-03-23T07:34:19.966Z,113.50
2019-03-23T07:36:49.249Z,98.20
2019-03-23T07:39:26.722Z,118.33
2019-03-23T07:41:48.416Z,139.33
2019-03-23T07:44:17.714Z,115.73
2019-03-23T07:46:46.299Z,124.43
2019-03-23T07:49:14.890Z,127.63
2019-03-23T07:51:44.258Z,127.33
2019-03-23T07:54:13.662Z,114.70
2019-03-23T07:56:43.441Z,131.93
2019-03-23T07:59:12.043Z,167.40
2019-03-23T08:01:41.497Z,144.70
2019-03-23T08:04:10.878Z,99.67
2019-03-23T08:06:39.448Z,160.13
2019-03-23T08:09:08.066Z,127.27
2019-03-23T08:11:37.499Z,125.23
2019-03-23T08:14:06.211Z,126.80
2019-03-23T08:16:35.573Z,133.10
2019-03-23T08:19:04.175Z,143.77
2019-03-23T08:21:33.717Z,124.27
2019-03-23T08:24:04.214Z,157.40
2019-03-23T08:26:33.508Z,146.50
2019-03-23T08:29:03.310Z,138.73
2019-03-23T08:31:32.741Z,172.80
2019-03-23T08:34:02.050Z,143.77
2019-03-23T08:36:30.730Z,120.20
2019-03-23T08:38:59.328Z,146.93
2019-03-23T08:41:27.912Z,130.50
2019-03-23T08:43:57.227Z,135.13
2019-03-23T08:46:28.415Z,112.80
2019-03-23T08:48:59.368Z,140.03
2019-03-23T08:51:27.946Z,117.07
2019-03-23T08:53:56.670Z,116.80
2019-03-23T08:56:25.259Z,134.53
2019-03-23T08:58:54.869Z,133.00
2019-03-23T09:01:23.457Z,133.27
2019-03-23T09:03:52.873Z,135.17
2019-03-23T09:06:21.613Z,142.30
2019-03-23T09:08:50.192Z,128.97
2019-03-23T09:11:20.760Z,111.47
2019-03-23T09:13:49.111Z,124.93
2019-03-23T09:16:17.691Z,115.90
2019-03-23T09:18:46.289Z,104.43
2019-03-23T09:21:14.873Z,138.70
2019-03-23T09:23:43.465Z,117.97
2019-03-23T09:26:13.711Z,104.23
2019-03-23T09:28:42.427Z,124.03
2019-03-23T09:31:11.009Z,106.10
2019-03-23T09:33:39.601Z,119.33
2019-03-23T09:36:08.196Z,100.40
2019-03-23T09:38:37.486Z,110.23
2019-03-23T09:41:06.150Z,90.50
2019-03-23T09:43:34.737Z,80.90
2019-03-23T09:46:03.372Z,105.60
2019-03-23T09:48:32.462Z,93.20
2019-03-23T09:51:01.546Z,89.90
2019-03-23T09:53:30.177Z,98.13
2019-03-23T09:55:59.481Z,97.43
2019-03-23T09:58:28.061Z,88.47
2019-03-23T10:00:57.345Z,81.63
2019-03-23T10:03:25.917Z,88.97
2019-03-23T10:05:55.218Z,96.80
2019-03-23T10:08:23.805Z,107.57
2019-03-23T10:10:52.485Z,97.43
2019-03-23T10:13:21.077Z,94.60
2019-03-23T10:15:49.671Z,101.57
2019-03-23T10:18:18.237Z,97.23
2019-03-23T10:20:47.533Z,118.07
2019-03-23T10:23:16.117Z,99.50
2019-03-23T10:25:45.440Z,103.83
2019-03-23T10:28:14.011Z,101.00
2019-03-23T10:30:42.685Z,110.10
2019-03-23T10:33:11.267Z,106.13
2019-03-23T10:35:39.854Z,97.23
2019-03-23T10:38:09.132Z,96.57
2019-03-23T10:40:37.729Z,98.87
2019-03-23T10:43:06.309Z,107.10
2019-03-23T10:45:43.837Z,97.77
2019-03-23T10:48:05.530Z,93.57
2019-03-23T10:50:34.117Z,93.87
2019-03-23T10:53:03.415Z,94.73
2019-03-23T10:55:32.721Z,93.60
2019-03-23T10:58:03.401Z,103.10
2019-03-23T11:00:32.792Z,81.30
2019-03-23T11:03:01.377Z,80.70
2019-03-23T11:05:30.041Z,91.60
2019-03-23T11:07:59.355Z,89.60
2019-03-23T11:10:27.921Z,89.73
2019-03-23T11:12:56.504Z,81.93
2019-03-23T11:15:25.803Z,88.87
2019-03-23T11:17:54.397Z,97.67
2019-03-23T11:20:23.762Z,100.93
2019-03-23T11:22:53.097Z,94.07
2019-03-23T11:25:22.738Z,106.83
2019-03-23T11:27:51.361Z,84.47
2019-03-23T11:30:20.946Z,90.80
2019-03-23T11:32:55.935Z,102.93
2019-03-23T11:35:42.244Z,105.13
2019-03-23T11:38:10.912Z,89.47
2019-03-23T11:40:39.501Z,101.87
2019-03-23T11:43:08.076Z,96.07
2019-03-23T11:45:36.970Z,91.00
2019-03-23T11:48:06.393Z,97.03
2019-03-23T11:50:35.125Z,81.50
2019-03-23T11:53:04.575Z,85.57
2019-03-23T11:55:33.901Z,98.50
2019-03-23T11:58:03.249Z,89.50
2019-03-23T12:00:32.617Z,87.40
2019-03-23T12:03:01.965Z,98.10
2019-03-23T12:05:31.294Z,85.10
2019-03-23T12:07:59.893Z,87.73
2019-03-23T12:10:29.215Z,83.17
2019-03-23T12:12:57.838Z,83.87
2019-03-23T12:15:29.740Z,84.47
2019-03-23T12:17:57.878Z,95.60
2019-03-23T12:20:27.188Z,86.87
2019-03-23T12:22:56.489Z,82.23
2019-03-23T12:25:25.782Z,90.53
2019-03-23T12:27:55.093Z,87.67
2019-03-23T12:30:24.412Z,86.13
2019-03-23T12:32:53.812Z,91.80
2019-03-23T12:35:23.109Z,89.40
2019-03-23T12:37:51.965Z,81.23
2019-03-23T12:40:20.622Z,87.60
2019-03-23T12:42:49.928Z,97.57
2019-03-23T12:45:19.431Z,89.93
2019-03-23T12:47:48.077Z,78.47
2019-03-23T12:50:18.588Z,82.37
2019-03-23T12:52:48.443Z,90.60
2019-03-23T12:55:18.013Z,95.93
2019-03-23T12:57:47.441Z,84.07
2019-03-23T13:00:17.175Z,89.70
2019-03-23T13:02:46.554Z,84.77
2019-03-23T13:05:15.942Z,81.90
2019-03-23T13:07:44.593Z,79.50
2019-03-23T13:10:14.186Z,80.50
2019-03-23T13:12:42.834Z,85.53
2019-03-23T13:15:12.330Z,85.83
2019-03-23T13:17:41.978Z,78.47
2019-03-23T13:20:11.473Z,85.60
2019-03-23T13:22:40.944Z,83.47
2019-03-23T13:25:10.548Z,87.77
2019-03-23T13:27:42.051Z,76.70
2019-03-23T13:30:11.836Z,78.90
2019-03-23T13:32:40.510Z,86.13
2019-03-23T13:35:10.062Z,77.70
2019-03-23T13:37:39.550Z,92.63
2019-03-23T13:40:09.882Z,87.43
2019-03-23T13:42:38.576Z,87.33
2019-03-23T13:45:08.918Z,81.77
2019-03-23T13:47:38.365Z,81.80
2019-03-23T13:50:07.289Z,85.63
2019-03-23T13:52:36.822Z,88.13
2019-03-23T13:55:06.728Z,71.70
2019-03-23T13:57:35.560Z,89.80
2019-03-23T14:00:05.589Z,84.07
2019-03-23T14:02:34.921Z,90.37
2019-03-23T14:05:03.572Z,87.00
2019-03-23T14:07:32.861Z,85.40
2019-03-23T14:10:01.464Z,82.53
2019-03-23T14:12:30.835Z,82.87
2019-03-23T14:15:00.292Z,81.50
2019-03-23T14:17:29.680Z,98.87
2019-03-23T14:19:59.001Z,97.07
2019-03-23T14:22:28.417Z,98.87
2019-03-23T14:24:57.942Z,95.33
2019-03-23T14:27:27.250Z,87.07
2019-03-23T14:29:56.561Z,83.23
2019-03-23T14:32:26.128Z,92.87
2019-03-23T14:34:55.574Z,81.27
2019-03-23T14:37:25.428Z,79.33
2019-03-23T14:39:54.441Z,86.90
2019-03-23T14:42:24.248Z,78.60
2019-03-23T14:44:53.520Z,78.03
2019-03-23T14:47:22.452Z,81.50
2019-03-23T14:49:51.745Z,68.53
2019-03-23T14:52:21.143Z,68.23
2019-03-23T14:54:50.534Z,69.40
2019-03-23T14:57:19.833Z,70.80
2019-03-23T14:59:49.137Z,63.50
2019-03-23T15:02:18.562Z,66.77
2019-03-23T15:04:47.942Z,67.73
2019-03-23T15:07:17.241Z,68.40
2019-03-23T15:09:45.805Z,64.83
2019-03-23T15:12:15.400Z,69.23
2019-03-23T15:14:44.525Z,65.70
2019-03-23T15:17:13.869Z,66.07
2019-03-23T15:19:43.222Z,70.80
2019-03-23T15:22:12.625Z,67.23
2019-03-23T15:24:41.221Z,61.23
2019-03-23T15:27:10.634Z,59.97
2019-03-23T15:29:39.929Z,59.97
2019-03-23T15:32:08.560Z,64.57
2019-03-23T15:34:37.879Z,60.77
2019-03-23T15:37:07.298Z,59.80
2019-03-23T15:39:35.889Z,62.70
2019-03-23T15:42:04.693Z,56.00
2019-03-23T15:44:34.179Z,64.20
2019-03-23T15:47:02.811Z,71.53
2019-03-23T15:49:32.097Z,56.30
2019-03-23T15:52:01.709Z,61.37
2019-03-23T15:54:31.015Z,62.20
2019-03-23T15:56:59.586Z,64.43
2019-03-23T15:59:28.941Z,53.20
2019-03-23T16:01:58.313Z,71.47
2019-03-23T16:04:27.621Z,59.10
2019-03-23T16:06:56.930Z,65.73
2019-03-23T16:09:25.600Z,63.50
2019-03-23T16:11:54.172Z,66.53
2019-03-23T16:14:23.477Z,67.13
2019-03-23T16:16:52.849Z,64.97
2019-03-23T16:19:21.429Z,58.27
2019-03-23T16:21:50.733Z,66.03
2019-03-23T16:24:20.153Z,67.47
2019-03-23T16:26:48.766Z,76.43
2019-03-23T16:29:17.360Z,59.70
2019-03-23T16:31:46.693Z,56.67
2019-03-23T16:34:15.393Z,62.07
2019-03-23T16:36:46.357Z,58.23
2019-03-23T16:39:15.078Z,65.90
2019-03-23T16:41:43.649Z,57.43
2019-03-23T16:44:12.422Z,75.13
2019-03-23T16:46:41.005Z,64.53
2019-03-23T16:49:09.819Z,65.50
2019-03-23T16:51:38.397Z,65.10
2019-03-23T16:54:07.005Z,62.20
2019-03-23T16:56:35.583Z,68.43
2019-03-23T16:59:04.260Z,71.17
2019-03-23T17:01:33.626Z,65.13
2019-03-23T17:04:02.290Z,80.47
2019-03-23T17:06:30.944Z,76.70
2019-03-23T17:08:59.523Z,63.40
2019-03-23T17:11:28.181Z,75.67
2019-03-23T17:13:57.571Z,65.57
2019-03-23T17:16:26.157Z,78.93
2019-03-23T17:18:54.730Z,67.47
2019-03-23T17:21:24.045Z,73.80
2019-03-23T17:23:52.637Z,74.57
2019-03-23T17:26:21.950Z,69.17
2019-03-23T17:28:50.533Z,68.77
2019-03-23T17:31:19.941Z,70.23
2019-03-23T17:33:49.412Z,62.07
2019-03-23T17:36:18.764Z,70.63
2019-03-23T17:38:48.194Z,63.07
2019-03-23T17:41:17.733Z,67.10
2019-03-23T17:43:47.041Z,68.00
2019-03-23T17:46:34.618Z,61.17
2019-03-23T17:49:04.072Z,69.73
2019-03-23T17:51:39.044Z,67.47
2019-03-23T17:54:08.409Z,70.80
2019-03-23T17:56:37.828Z,54.40
2019-03-23T17:59:07.245Z,59.63
2019-03-23T18:01:36.653Z,69.70
2019-03-23T18:04:05.942Z,65.03
2019-03-23T18:06:35.342Z,74.33
2019-03-23T18:09:06.095Z,60.63
2019-03-23T18:11:35.426Z,63.70
2019-03-23T18:14:04.845Z,63.67
2019-03-23T18:16:34.277Z,69.13
2019-03-23T18:19:11.710Z,67.07
2019-03-23T18:21:41.030Z,65.40
2019-03-23T18:24:10.437Z,71.43
2019-03-23T18:26:39.809Z,49.90
2019-03-23T18:29:09.149Z,64.13
2019-03-23T18:31:38.466Z,66.00
2019-03-23T18:34:07.055Z,62.63
2019-03-23T18:36:35.649Z,65.97
2019-03-23T18:39:06.217Z,99.17
2019-03-23T18:41:35.685Z,67.07
2019-03-23T18:44:15.752Z,55.53
2019-03-23T18:46:38.605Z,61.57
2019-03-23T18:49:07.912Z,54.23
2019-03-23T18:51:37.229Z,68.57
2019-03-23T18:54:05.909Z,58.40
2019-03-23T18:56:35.281Z,53.83
2019-03-23T18:59:04.669Z,68.53
2019-03-23T19:01:33.989Z,62.83
2019-03-23T19:04:03.369Z,81.03
2019-03-23T19:06:32.937Z,70.93
2019-03-23T19:09:01.541Z,70.07
2019-03-23T19:11:30.163Z,83.03
2019-03-23T19:13:59.553Z,94.03
2019-03-23T19:16:28.209Z,67.07
2019-03-23T19:18:57.554Z,66.57
2019-03-23T19:21:26.917Z,65.07
2019-03-23T19:24:51.123Z,63.23
2019-03-23T19:27:20.611Z,66.20
2019-03-23T19:29:49.909Z,71.63
2019-03-23T19:32:19.409Z,72.23
2019-03-23T19:34:48.096Z,60.53
2019-03-23T19:37:16.760Z,58.60
2019-03-23T19:39:46.314Z,63.43
2019-03-23T19:42:15.635Z,62.73
2019-03-23T19:44:44.193Z,58.43
2019-03-23T19:47:13.486Z,63.73
2019-03-23T19:49:42.172Z,73.13
2019-03-23T19:52:11.537Z,55.57
2019-03-23T19:54:40.125Z,67.67
2019-03-23T19:57:08.953Z,59.70
2019-03-23T19:59:37.552Z,61.07
2019-03-23T20:02:07.265Z,68.53
2019-03-23T20:04:35.853Z,68.50
2019-03-23T20:07:05.369Z,64.53
2019-03-23T20:09:35.145Z,60.27
2019-03-23T20:12:03.839Z,65.70
2019-03-23T20:14:33.222Z,59.50
2019-03-23T20:17:02.803Z,67.87
2019-03-23T20:19:32.128Z,59.97
2019-03-23T20:22:01.418Z,68.97
2019-03-23T20:24:30.006Z,66.93
2019-03-23T20:26:59.334Z,76.03
2019-03-23T20:29:28.653Z,55.87
2019-03-23T20:31:57.285Z,55.03
2019-03-23T20:34:25.882Z,67.43
2019-03-23T20:36:55.181Z,74.77
2019-03-23T20:39:23.775Z,54.10
2019-03-23T20:41:53.098Z,66.60
2019-03-23T20:44:21.693Z,65.93
2019-03-23T20:46:50.983Z,56.30
2019-03-23T20:49:20.450Z,64.10
2019-03-23T20:51:50.021Z,68.67
2019-03-23T20:54:19.609Z,68.77
2019-03-23T20:56:48.909Z,64.50
2019-03-23T20:59:18.259Z,71.00
2019-03-23T21:01:47.576Z,69.03
2019-03-23T21:04:16.193Z,65.97
2019-03-23T21:06:45.550Z,54.70
2019-03-23T21:09:14.133Z,69.17
2019-03-23T21:11:42.709Z,67.97
2019-03-23T21:14:19.863Z,55.37
2019-03-23T21:16:42.360Z,66.33
2019-03-23T21:19:11.663Z,68.97
2019-03-23T21:21:40.972Z,74.47
2019-03-23T21:24:10.317Z,59.63
2019-03-23T21:26:41.342Z,56.17
2019-03-23T21:29:10.869Z,54.90
2019-03-23T21:31:40.172Z,69.33
2019-03-23T21:34:09.541Z,63.07
2019-03-23T21:36:38.877Z,63.47
2019-03-23T21:39:08.350Z,69.13
2019-03-23T21:41:37.660Z,54.83
2019-03-23T21:44:06.249Z,70.77
2019-03-23T21:46:35.593Z,57.13
2019-03-23T21:49:04.240Z,58.43
2019-03-23T21:51:33.537Z,60.73
2019-03-23T21:54:02.833Z,60.93
2019-03-23T21:56:32.274Z,97.00
2019-03-23T21:59:01.809Z,85.40
2019-03-23T22:01:31.118Z,68.23
2019-03-23T22:03:59.706Z,69.77
2019-03-23T22:06:28.322Z,66.97
2019-03-23T22:08:57.634Z,57.93
2019-03-23T22:11:26.214Z,70.33
2019-03-23T22:13:55.506Z,58.47
2019-03-23T22:16:24.089Z,55.60
2019-03-23T22:18:54.392Z,56.13
2019-03-23T22:21:25.383Z,51.03
2019-03-23T22:23:54.053Z,53.77
2019-03-23T22:26:22.670Z,65.13
2019-03-23T22:28:51.998Z,58.47
2019-03-23T22:31:20.613Z,66.63
2019-03-23T22:33:49.899Z,55.87
2019-03-23T22:36:18.521Z,57.90
2019-03-23T22:38:47.813Z,57.43
2019-03-23T22:41:16.416Z,54.63
2019-03-23T22:43:44.993Z,64.97
2019-03-23T22:46:13.577Z,60.67
2019-03-23T22:48:42.170Z,62.33
2019-03-23T22:51:11.489Z,58.27
2019-03-23T22:53:40.799Z,66.10
2019-03-23T22:56:10.124Z,63.10
2019-03-23T22:58:39.431Z,54.60
2019-03-23T23:01:08.949Z,49.27
2019-03-23T23:03:38.400Z,57.90
2019-03-23T23:06:07.889Z,54.40
2019-03-23T23:08:36.485Z,59.87
2019-03-23T23:11:06.193Z,58.02
2019-03-23T23:13:37.120Z,63.10
2019-03-23T23:16:05.809Z,55.87
2019-03-23T23:18:34.491Z,57.37
2019-03-23T23:21:03.873Z,58.03
2019-03-23T23:23:33.182Z,65.73
2019-03-23T23:26:02.494Z,72.33
2019-03-23T23:28:31.795Z,67.93
2019-03-23T23:31:00.649Z,63.60
2019-03-23T23:33:29.953Z,64.03
2019-03-23T23:35:59.237Z,55.07
2019-03-23T23:38:27.832Z,56.93
2019-03-23T23:40:56.505Z,60.53
2019-03-23T23:43:25.890Z,68.70
2019-03-23T23:45:54.478Z,61.23
2019-03-23T23:48:24.220Z,55.00
2019-03-23T23:50:53.578Z,64.57
2019-03-23T23:53:23.405Z,60.23
2019-03-23T23:55:52.729Z,65.30
2019-03-23T23:58:22.020Z,52.93
